OMRK/RKT METAR and TAF weather

Enter ICAO airport designator
Station Type Date Time Source
OMRK METAR 2019/04/25 12:00 UTC NOAA

OMRK 251200Z 27011KT CAVOK 27/12 Q1013 A2994


Station Type Date Time Source
OMRK Decoded METAR 2019/04/25 12:00 UTC NOAA

Ras Al Khaimah International Airport, United Arab Emirates (OMRK) 25-37N 055-56E 31M
Apr 25, 2019 - 08:00 AM EDT / 2019.04.25 1200 UTC
Wind: from the W (270 degrees) at 13 MPH (11 KT):0
Visibility: greater than 7 mile(s):0
Temperature: 80 F (27 C)
Dew Point: 53 F (12 C)
Relative Humidity: 39%
Pressure (altimeter): 29.94 in. Hg (1013 hPa)
ob: OMRK 251200Z 27011KT CAVOK 27/12 Q1013 A2994
cycle: 12

Station Type Date Time Source
OMRK TAF 2019/04/25 12:03 UTC NOAA

TAF OMRK 251051Z 2512/2618 29013KT 8000 FEW030
BECMG 2515/2517 18005KT
BECMG 2606/2608 27012KT
BECMG 2615/2617 17005KT

Example: see airport list